Fishersville, Virginia
Current Conditions -  °F | °C
As of 5:35 AM on Thursday 27 Nov 2014 (Local Time) from KW13 Reporting Station
Overcast Overcast  
Wind Chill: 29°   Ceiling: 8000
Heat Index: 29°   Visibility: 5mi
Dew Point: 29°   Wind: 0mph
Humidity: 99%   Direction: NA
Pressure: 29.97"   Gusts: NA
Location:  38.1°N, 78.97°W
Report Text: KW13 271035Z AUTO 00000KT 5SM BKN080 OVC095 M01/M02 A2997 RMK AO1 T10151016
Loading
Personal Weather Stations






























Interactive Weather Map New forecast layout! Learn more

10-Day Weather Forecast

Advertisements
Track Severe Weather on mobile